Dominia — ICFW — position and weather

sailwx.info

Track history (hours):
 
Tides and Currents Weather Stations Pressure Air Temp Water Temp Dewpoint Dewpoint Depression Visibility Wind Speed Wind Dir Waves Ship Positions

Dominia

Last reported at 2016-Sep-23 15:33 UTC. Time now 2016-Sep-26 10:34 UTC.
Position N 36°50' E 013°34'.

Length 176 m; draft 7.8 m.

Type: Tanker. MMSI: 247273400.

Date/timePositionNaut miles runAvg speedWind from/ knotsBaromVisibWave heightAir tempDewpointWater temp
2016-Sep-23 15:33N 36°50' E 013°34'2412.2
2016-Sep-23 13:33N 36°45' E 014°03'  
2016-Sep-20 17:30N 34°12' E 031°15'3712.7
2016-Sep-20 14:33N 34°09' E 032°00'1712.5
2016-Sep-20 13:12N 34°08' E 032°20'3212.2
2016-Sep-20 10:33N 34°05' E 032°59'2412.1
2016-Sep-20 08:33N 34°03' E 033°28'1211.9
2016-Sep-20 07:33N 34°02' E 033°43'1211.9
2016-Sep-20 06:33N 34°01' E 033°57'5112.7
2016-Sep-20 02:33N 33°57' E 034°58'29 2.1
2016-Sep-19 12:27N 33°55' E 035°33'2 0.1
2016-Sep-18 09:08N 33°56' E 035°31'  
Track history (hours):
 
Tides and Currents Weather Stations Pressure Air Temp Water Temp Dewpoint Dewpoint Depression Visibility Wind Speed Wind Dir Waves Ship Positions

Dominia

Last reported at 2016-Sep-23 15:33 UTC. Time now 2016-Sep-26 10:34 UTC.
Position N 36°50' E 013°34'.

Length 176 m; draft 7.8 m.

Type: Tanker. MMSI: 247273400.

Date/timePositionNaut miles runAvg speedWind from/ knotsBaromVisibWave heightAir tempDewpointWater temp
2016-Sep-23 15:33N 36°50' E 013°34'2412.2
2016-Sep-23 13:33N 36°45' E 014°03'  
2016-Sep-20 17:30N 34°12' E 031°15'3712.7
2016-Sep-20 14:33N 34°09' E 032°00'1712.5
2016-Sep-20 13:12N 34°08' E 032°20'3212.2
2016-Sep-20 10:33N 34°05' E 032°59'2412.1
2016-Sep-20 08:33N 34°03' E 033°28'1211.9
2016-Sep-20 07:33N 34°02' E 033°43'1211.9
2016-Sep-20 06:33N 34°01' E 033°57'5112.7
2016-Sep-20 02:33N 33°57' E 034°58'29 2.1
2016-Sep-19 12:27N 33°55' E 035°33'2 0.1
2016-Sep-18 09:08N 33°56' E 035°31'  

Dump ship's entire track history